createdAt,value
2018-10-03T00:01:56.598Z,100649.65
2018-10-03T00:04:24.779Z,100644.81
2018-10-03T00:06:52.973Z,100643.89
2018-10-03T00:09:21.328Z,100652.54
2018-10-03T00:11:49.507Z,100660.73
2018-10-03T00:14:17.674Z,100649.00
2018-10-03T00:16:45.907Z,100657.37
2018-10-03T00:19:14.078Z,100658.55
2018-10-03T00:21:42.463Z,100654.66
2018-10-03T00:24:10.625Z,100657.60
2018-10-03T00:26:38.809Z,100652.06
2018-10-03T00:29:06.953Z,100668.95
2018-10-03T00:31:35.567Z,100657.99
2018-10-03T00:34:03.720Z,100650.67
2018-10-03T00:36:31.981Z,100658.91
2018-10-03T00:39:00.127Z,100662.80
2018-10-03T00:41:28.259Z,100663.67
2018-10-03T00:43:56.447Z,100658.70
2018-10-03T00:46:24.626Z,100665.14
2018-10-03T00:48:52.795Z,100662.03
2018-10-03T00:51:20.947Z,100662.27
2018-10-03T00:53:49.073Z,100658.42
2018-10-03T00:56:17.251Z,100666.95
2018-10-03T00:58:45.423Z,100660.45
2018-10-03T01:01:13.606Z,100666.08
2018-10-03T01:03:41.775Z,100661.58
2018-10-03T01:06:09.980Z,100654.23
2018-10-03T01:08:38.171Z,100665.51
2018-10-03T01:11:06.358Z,100658.70
2018-10-03T01:13:34.575Z,100670.99
2018-10-03T01:16:02.811Z,100665.91
2018-10-03T01:18:30.941Z,100664.64
2018-10-03T01:20:59.220Z,100664.21
2018-10-03T01:23:27.425Z,100664.55
2018-10-03T01:25:55.729Z,100671.05
2018-10-03T01:28:23.883Z,100658.42
2018-10-03T01:30:52.735Z,100662.91
2018-10-03T01:33:20.998Z,100655.25
2018-10-03T01:35:49.242Z,100657.14
2018-10-03T01:38:17.498Z,100666.55
2018-10-03T01:40:45.595Z,100678.85
2018-10-03T01:43:13.740Z,100689.02
2018-10-03T01:45:41.940Z,100684.41
2018-10-03T01:48:10.089Z,100687.33
2018-10-03T01:50:38.272Z,100706.56
2018-10-03T01:53:06.589Z,100700.92
2018-10-03T01:55:41.346Z,100687.55
2018-10-03T01:58:09.495Z,100704.42
2018-10-03T02:00:37.677Z,100700.86
2018-10-03T02:03:05.935Z,100708.55
2018-10-03T02:05:34.552Z,100706.34
2018-10-03T02:08:02.724Z,100716.62
2018-10-03T02:10:31.018Z,100702.84
2018-10-03T02:12:59.155Z,100709.03
2018-10-03T02:15:27.323Z,100715.09
2018-10-03T02:17:55.429Z,100706.85
2018-10-03T02:20:23.596Z,100717.50
2018-10-03T02:22:51.744Z,100703.91
2018-10-03T02:25:19.895Z,100695.34
2018-10-03T02:27:48.085Z,100700.17
2018-10-03T02:30:16.254Z,100700.34
2018-10-03T02:32:44.403Z,100703.03
2018-10-03T02:35:12.552Z,100694.30
2018-10-03T02:37:40.788Z,100693.49
2018-10-03T02:40:08.949Z,100700.34
2018-10-03T02:42:37.180Z,100701.54
2018-10-03T02:45:05.519Z,100699.04
2018-10-03T02:47:33.841Z,100703.62
2018-10-03T02:50:02.034Z,100702.67
2018-10-03T02:52:30.244Z,100702.48
2018-10-03T02:54:58.639Z,100703.88
2018-10-03T02:57:26.827Z,100718.94
2018-10-03T02:59:54.986Z,100716.20
2018-10-03T03:02:23.160Z,100723.73
2018-10-03T03:04:51.377Z,100702.59
2018-10-03T03:07:19.661Z,100711.55
2018-10-03T03:09:47.835Z,100705.66
2018-10-03T03:12:16.061Z,100718.58
2018-10-03T03:14:44.295Z,100709.94
2018-10-03T03:17:12.453Z,100708.64
2018-10-03T03:19:40.575Z,100714.77
2018-10-03T03:22:08.749Z,100715.71
2018-10-03T03:24:36.929Z,100711.87
2018-10-03T03:27:05.087Z,100707.77
2018-10-03T03:29:39.981Z,100710.95
2018-10-03T03:32:08.188Z,100718.67
2018-10-03T03:34:36.370Z,100713.03
2018-10-03T03:37:04.561Z,100708.55
2018-10-03T03:39:32.751Z,100720.66
2018-10-03T03:42:00.989Z,100714.42
2018-10-03T03:44:29.264Z,100720.81
2018-10-03T03:46:57.502Z,100725.23
2018-10-03T03:49:25.729Z,100721.89
2018-10-03T03:51:54.023Z,100732.37
2018-10-03T03:54:22.278Z,100727.14
2018-10-03T03:56:50.443Z,100725.52
2018-10-03T03:59:18.723Z,100732.59
2018-10-03T04:01:47.013Z,100727.41
2018-10-03T04:04:15.289Z,100726.11
2018-10-03T04:06:43.459Z,100737.95
2018-10-03T04:09:11.695Z,100743.83
2018-10-03T04:11:39.931Z,100739.19
2018-10-03T04:14:08.196Z,100731.03
2018-10-03T04:16:36.383Z,100730.58
2018-10-03T04:19:04.658Z,100714.90
2018-10-03T04:21:38.382Z,100713.70
2018-10-03T04:24:07.787Z,100740.34
2018-10-03T04:26:35.949Z,100737.69
2018-10-03T04:29:04.654Z,100730.80
2018-10-03T04:31:33.726Z,100706.52
2018-10-03T04:34:01.937Z,100742.84
2018-10-03T04:36:30.156Z,100743.30
2018-10-03T04:38:58.352Z,100739.47
2018-10-03T04:41:26.544Z,100740.44
2018-10-03T04:43:54.700Z,100727.09
2018-10-03T04:46:23.082Z,100732.34
2018-10-03T04:48:51.449Z,100748.30
2018-10-03T04:51:19.960Z,100746.48
2018-10-03T04:53:48.175Z,100751.67
2018-10-03T04:56:17.106Z,100755.93
2018-10-03T04:58:45.286Z,100749.66
2018-10-03T05:01:13.447Z,100748.14
2018-10-03T05:03:41.686Z,100761.48
2018-10-03T05:06:10.039Z,100768.92
2018-10-03T05:08:38.376Z,100768.56
2018-10-03T05:11:06.701Z,100770.89
2018-10-03T05:13:34.858Z,100775.16
2018-10-03T05:16:03.066Z,100779.53
2018-10-03T05:18:31.314Z,100769.37
2018-10-03T05:20:59.584Z,100771.52
2018-10-03T05:23:27.839Z,100778.08
2018-10-03T05:25:56.075Z,100772.55
2018-10-03T05:28:24.284Z,100773.33
2018-10-03T05:30:52.530Z,100784.96
2018-10-03T05:33:20.768Z,100792.88
2018-10-03T05:35:48.934Z,100781.71
2018-10-03T05:38:17.089Z,100791.77
2018-10-03T05:40:45.226Z,100789.14
2018-10-03T05:43:13.403Z,100793.20
2018-10-03T05:45:42.235Z,100806.64
2018-10-03T05:48:10.407Z,100801.45
2018-10-03T05:50:38.567Z,100808.53
2018-10-03T05:53:06.815Z,100818.83
2018-10-03T05:55:35.047Z,100825.71
2018-10-03T05:58:03.292Z,100830.13
2018-10-03T06:00:32.853Z,100835.33
2018-10-03T06:03:01.073Z,100841.27
2018-10-03T06:05:29.254Z,100836.53
2018-10-03T06:07:57.422Z,100844.91
2018-10-03T06:10:25.619Z,100843.19
2018-10-03T06:12:53.804Z,100850.78
2018-10-03T06:15:21.958Z,100855.47
2018-10-03T06:17:50.132Z,100852.09
2018-10-03T06:20:18.364Z,100853.03
2018-10-03T06:22:46.527Z,100864.63
2018-10-03T06:25:14.680Z,100862.70
2018-10-03T06:27:42.912Z,100861.80
2018-10-03T06:30:11.105Z,100866.61
2018-10-03T06:32:39.221Z,100870.77
2018-10-03T06:35:07.385Z,100865.46
2018-10-03T06:37:35.508Z,100862.72
2018-10-03T06:40:03.704Z,100875.19
2018-10-03T06:42:31.890Z,100869.09
2018-10-03T06:45:00.226Z,100878.88
2018-10-03T06:47:28.892Z,100867.76
2018-10-03T06:49:57.071Z,100885.91
2018-10-03T06:52:25.281Z,100898.69
2018-10-03T06:54:53.533Z,100897.50
2018-10-03T06:57:21.742Z,100900.66
2018-10-03T06:59:49.908Z,100907.55
2018-10-03T07:02:18.057Z,100903.32
2018-10-03T07:04:46.200Z,100910.53
2018-10-03T07:07:14.316Z,100903.55
2018-10-03T07:09:42.490Z,100913.16
2018-10-03T07:12:10.670Z,100918.87
2018-10-03T07:14:38.851Z,100921.54
2018-10-03T07:17:07.411Z,100918.23
2018-10-03T07:19:35.589Z,100920.22
2018-10-03T07:22:03.822Z,100940.66
2018-10-03T07:24:31.978Z,100941.77
2018-10-03T07:27:00.152Z,100939.58
2018-10-03T07:29:28.532Z,100951.48
2018-10-03T07:31:56.675Z,100959.09
2018-10-03T07:34:24.958Z,100953.10
2018-10-03T07:36:53.158Z,100968.16
2018-10-03T07:39:22.207Z,100974.12
2018-10-03T07:41:50.574Z,100974.34
2018-10-03T07:44:18.815Z,100971.02
2018-10-03T07:46:47.048Z,100963.00
2018-10-03T07:49:15.231Z,100978.52
2018-10-03T07:51:43.404Z,100983.50
2018-10-03T07:54:11.654Z,100968.77
2018-10-03T07:56:39.835Z,100982.06
2018-10-03T07:59:08.245Z,100982.83
2018-10-03T08:01:36.207Z,100991.30
2018-10-03T08:04:04.391Z,100988.83
2018-10-03T08:06:32.682Z,100988.98
2018-10-03T08:09:00.883Z,100982.23
2018-10-03T08:11:29.011Z,101000.92
2018-10-03T08:13:57.201Z,101007.61
2018-10-03T08:16:25.419Z,100997.28
2018-10-03T08:18:53.617Z,101019.02
2018-10-03T08:21:21.827Z,101021.69
2018-10-03T08:23:50.058Z,101017.78
2018-10-03T08:26:18.286Z,101014.71
2018-10-03T08:28:46.478Z,101034.24
2018-10-03T08:31:14.689Z,101039.52
2018-10-03T08:33:42.889Z,101024.41
2018-10-03T08:36:11.029Z,101044.22
2018-10-03T08:38:39.305Z,101055.69
2018-10-03T08:41:07.497Z,101039.69
2018-10-03T08:43:35.707Z,101060.47
2018-10-03T08:46:03.981Z,101058.14
2018-10-03T08:48:32.304Z,101066.75
2018-10-03T08:51:00.502Z,101044.08
2018-10-03T08:53:28.687Z,101065.68
2018-10-03T08:55:57.033Z,101067.03
2018-10-03T08:58:25.401Z,101078.42
2018-10-03T09:00:53.477Z,101080.58
2018-10-03T09:03:21.726Z,101065.44
2018-10-03T09:05:50.005Z,101084.17
2018-10-03T09:08:18.249Z,101090.50
2018-10-03T09:10:48.364Z,101091.37
2018-10-03T09:13:16.556Z,101114.44
2018-10-03T09:15:44.730Z,101112.06
2018-10-03T09:18:12.892Z,101102.76
2018-10-03T09:20:41.079Z,101115.39
2018-10-03T09:23:09.366Z,101114.83
2018-10-03T09:25:37.582Z,101112.95
2018-10-03T09:28:05.941Z,101121.28
2018-10-03T09:30:34.226Z,101128.17
2018-10-03T09:33:02.476Z,101127.71
2018-10-03T09:35:31.202Z,101121.08
2018-10-03T09:37:59.440Z,101143.08
2018-10-03T09:40:27.710Z,101132.08
2018-10-03T09:42:55.989Z,101150.52
2018-10-03T09:45:24.164Z,101157.34
2018-10-03T09:47:52.450Z,101155.82
2018-10-03T09:50:20.676Z,101169.22
2018-10-03T09:52:48.872Z,101170.67
2018-10-03T09:55:17.173Z,101181.56
2018-10-03T09:57:45.372Z,101173.39
2018-10-03T10:00:13.689Z,101175.69
2018-10-03T10:02:41.872Z,101191.77
2018-10-03T10:05:10.028Z,101174.52
2018-10-03T10:07:38.408Z,101191.68
2018-10-03T10:10:06.684Z,101189.97
2018-10-03T10:12:34.902Z,101211.62
2018-10-03T10:15:03.191Z,101211.26
2018-10-03T10:17:31.497Z,101204.95
2018-10-03T10:19:59.725Z,101207.98
2018-10-03T10:22:27.960Z,101214.25
2018-10-03T10:24:56.133Z,101209.66
2018-10-03T10:27:24.281Z,101215.68
2018-10-03T10:29:52.411Z,101209.23
2018-10-03T10:32:20.692Z,101217.78
2018-10-03T10:34:48.940Z,101201.91
2018-10-03T10:37:17.142Z,101212.04
2018-10-03T10:39:45.420Z,101232.48
2018-10-03T10:42:13.698Z,101218.77
2018-10-03T10:44:41.919Z,101218.86
2018-10-03T10:47:10.094Z,101215.30
2018-10-03T10:49:38.275Z,101213.13
2018-10-03T10:52:06.539Z,101229.81
2018-10-03T10:54:34.874Z,101232.59
2018-10-03T10:57:03.098Z,101259.12
2018-10-03T10:59:31.597Z,101274.46
2018-10-03T11:02:00.552Z,101270.24
2018-10-03T11:04:28.766Z,101276.03
2018-10-03T11:06:57.949Z,101277.91
2018-10-03T11:09:26.460Z,101287.13
2018-10-03T11:11:54.763Z,101278.48
2018-10-03T11:14:23.001Z,101279.21
2018-10-03T11:16:52.091Z,101286.96
2018-10-03T11:19:20.341Z,101287.78
2018-10-03T11:21:49.248Z,101306.64
2018-10-03T11:24:18.122Z,101300.58
2018-10-03T11:26:46.269Z,101316.13
2018-10-03T11:29:14.513Z,101313.42
2018-10-03T11:31:42.800Z,101310.60
2018-10-03T11:34:16.247Z,101314.89
2018-10-03T11:36:44.422Z,101321.54
2018-10-03T11:39:12.627Z,101326.52
2018-10-03T11:41:40.854Z,101321.05
2018-10-03T11:44:09.099Z,101316.78
2018-10-03T11:46:37.361Z,101319.73
2018-10-03T11:49:05.576Z,101312.88
2018-10-03T11:51:33.849Z,101314.83
2018-10-03T11:54:02.767Z,101322.31
2018-10-03T11:56:32.086Z,101331.07
2018-10-03T11:59:01.306Z,101333.52
2018-10-03T12:01:33.280Z,101331.86
2018-10-03T12:04:01.690Z,101333.30
2018-10-03T12:06:30.779Z,101327.63
2018-10-03T12:09:05.844Z,101333.78
2018-10-03T12:11:35.752Z,101332.08
2018-10-03T12:14:04.303Z,101322.19
2018-10-03T12:16:32.719Z,101345.11
2018-10-03T12:19:00.936Z,101328.73
2018-10-03T12:21:29.099Z,101344.86
2018-10-03T12:23:57.800Z,101341.23
2018-10-03T12:26:26.950Z,101334.89
2018-10-03T12:28:55.134Z,101351.31
2018-10-03T12:31:23.340Z,101351.23
2018-10-03T12:33:52.822Z,101333.51
2018-10-03T12:36:21.075Z,101337.56
2018-10-03T12:38:49.297Z,101350.81
2018-10-03T12:41:17.604Z,101353.03
2018-10-03T12:43:46.165Z,101356.00
2018-10-03T12:46:14.585Z,101359.09
2018-10-03T12:48:42.740Z,101360.02
2018-10-03T12:51:10.918Z,101370.26
2018-10-03T12:53:39.160Z,101376.52
2018-10-03T12:56:07.494Z,101370.25
2018-10-03T12:58:42.076Z,101381.86
2018-10-03T13:01:10.327Z,101382.36
2018-10-03T13:03:38.763Z,101383.56
2018-10-03T13:06:07.392Z,101383.48
2018-10-03T13:08:35.643Z,101393.22
2018-10-03T13:11:03.832Z,101399.83
2018-10-03T13:13:32.107Z,101398.56
2018-10-03T13:16:01.019Z,101395.98
2018-10-03T13:18:32.266Z,101404.41
2018-10-03T13:21:07.045Z,101402.95
2018-10-03T13:23:35.349Z,101412.25
2018-10-03T13:26:03.710Z,101419.43
2018-10-03T13:28:31.899Z,101419.72
2018-10-03T13:31:00.105Z,101432.41
2018-10-03T13:34:35.408Z,101424.20
2018-10-03T13:37:03.594Z,101423.72
2018-10-03T13:39:31.782Z,101431.83
2018-10-03T13:42:00.022Z,101425.84
2018-10-03T13:44:28.770Z,101445.11
2018-10-03T13:46:57.071Z,101438.01
2018-10-03T13:49:25.373Z,101434.89
2018-10-03T13:51:55.533Z,101450.94
2018-10-03T13:54:23.814Z,101440.99
2018-10-03T13:56:51.981Z,101457.61
2018-10-03T13:59:20.503Z,101450.05
2018-10-03T14:01:48.902Z,101456.58
2018-10-03T14:04:17.070Z,101449.02
2018-10-03T14:06:45.487Z,101464.27
2018-10-03T14:09:13.818Z,101457.44
2018-10-03T14:11:41.977Z,101452.20
2018-10-03T14:14:10.263Z,101459.30
2018-10-03T14:16:38.470Z,101469.02
2018-10-03T14:19:16.094Z,101475.18
2018-10-03T14:21:55.711Z,101477.72
2018-10-03T14:24:26.195Z,101492.30
2018-10-03T14:26:54.389Z,101496.25
2018-10-03T14:29:22.673Z,101500.52
2018-10-03T14:31:50.888Z,101491.51
2018-10-03T14:34:20.201Z,101503.78
2018-10-03T14:36:55.065Z,101499.13
2018-10-03T14:39:23.358Z,101506.45
2018-10-03T14:41:52.042Z,101505.15
2018-10-03T14:44:21.289Z,101502.91
2018-10-03T14:46:49.659Z,101504.01
2018-10-03T14:49:18.329Z,101512.79
2018-10-03T14:51:46.576Z,101511.14
2018-10-03T14:54:14.893Z,101510.17
2018-10-03T14:56:43.083Z,101524.61
2018-10-03T14:59:12.247Z,101517.16
2018-10-03T15:01:40.501Z,101524.71
2018-10-03T15:04:08.701Z,101530.73
2018-10-03T15:06:36.884Z,101528.73
2018-10-03T15:09:07.104Z,101537.23
2018-10-03T15:11:35.311Z,101539.48
2018-10-03T15:14:03.781Z,101546.56
2018-10-03T15:16:32.055Z,101549.75
2018-10-03T15:19:00.274Z,101551.42
2018-10-03T15:21:28.523Z,101562.82
2018-10-03T15:23:56.799Z,101557.62
2018-10-03T15:26:25.701Z,101567.38
2018-10-03T15:28:53.915Z,101572.84
2018-10-03T15:31:22.215Z,101573.21
2018-10-03T15:33:50.419Z,101582.98
2018-10-03T15:36:18.728Z,101594.09
2018-10-03T15:38:46.985Z,101583.48
2018-10-03T15:41:15.251Z,101584.11
2018-10-03T15:43:43.556Z,101589.33
2018-10-03T15:46:11.755Z,101581.56
2018-10-03T15:48:40.060Z,101598.02
2018-10-03T15:51:08.307Z,101603.33
2018-10-03T15:53:36.462Z,101603.01
2018-10-03T15:56:04.753Z,101597.72
2018-10-03T15:58:32.967Z,101600.33
2018-10-03T16:01:01.222Z,101603.73
2018-10-03T16:03:29.397Z,101608.48
2018-10-03T16:05:57.737Z,101612.70
2018-10-03T16:08:26.101Z,101612.33
2018-10-03T16:10:54.558Z,101614.80
2018-10-03T16:13:22.774Z,101620.17
2018-10-03T16:15:51.035Z,101619.13
2018-10-03T16:18:19.260Z,101626.73
2018-10-03T16:20:47.455Z,101635.70
2018-10-03T16:23:15.779Z,101632.25
2018-10-03T16:25:43.954Z,101641.28
2018-10-03T16:28:12.305Z,101640.86
2018-10-03T16:30:41.180Z,101636.87
2018-10-03T16:33:09.500Z,101642.33
2018-10-03T16:35:37.734Z,101649.98
2018-10-03T16:38:05.969Z,101651.74
2018-10-03T16:40:34.270Z,101653.09
2018-10-03T16:43:02.524Z,101657.91
2018-10-03T16:45:30.879Z,101663.30
2018-10-03T16:47:59.162Z,101665.44
2018-10-03T16:50:28.167Z,101669.92
2018-10-03T16:52:57.431Z,101666.17
2018-10-03T16:55:25.683Z,101681.20
2018-10-03T16:57:54.233Z,101685.31
2018-10-03T17:00:23.035Z,101687.30
2018-10-03T17:02:51.221Z,101699.33
2018-10-03T17:05:19.505Z,101701.20
2018-10-03T17:07:47.761Z,101701.77
2018-10-03T17:10:15.999Z,101708.23
2018-10-03T17:12:44.275Z,101715.48
2018-10-03T17:15:12.527Z,101713.73
2018-10-03T17:17:40.730Z,101714.12
2018-10-03T17:20:08.941Z,101717.03
2018-10-03T17:22:37.741Z,101710.95
2018-10-03T17:25:06.027Z,101714.69
2018-10-03T17:27:34.265Z,101718.85
2018-10-03T17:30:02.681Z,101720.70
2018-10-03T17:32:31.021Z,101717.73
2018-10-03T17:34:59.332Z,101731.25
2018-10-03T17:37:27.590Z,101727.34
2018-10-03T17:39:55.925Z,101737.12
2018-10-03T17:42:24.285Z,101743.55
2018-10-03T17:44:52.621Z,101745.69
2018-10-03T17:47:21.332Z,101752.67
2018-10-03T17:49:49.895Z,101746.45
2018-10-03T17:52:18.294Z,101754.59
2018-10-03T17:54:46.573Z,101760.89
2018-10-03T17:57:14.958Z,101762.45
2018-10-03T17:59:43.186Z,101764.71
2018-10-03T18:02:12.888Z,101777.19
2018-10-03T18:04:42.968Z,101773.91
2018-10-03T18:07:11.177Z,101776.89
2018-10-03T18:09:39.542Z,101782.69
2018-10-03T18:12:07.783Z,101788.20
2018-10-03T18:14:36.080Z,101786.13
2018-10-03T18:17:04.483Z,101790.50
2018-10-03T18:19:32.862Z,101791.51
2018-10-03T18:22:01.705Z,101799.48
2018-10-03T18:24:29.997Z,101803.42
2018-10-03T18:26:58.507Z,101802.50
2018-10-03T18:29:26.963Z,101807.83
2018-10-03T18:31:55.267Z,101812.53
2018-10-03T18:34:23.634Z,101815.89
2018-10-03T18:36:51.882Z,101815.03
2018-10-03T18:39:20.211Z,101815.41
2018-10-03T18:41:48.795Z,101819.44
2018-10-03T18:44:17.788Z,101813.60
2018-10-03T18:46:46.421Z,101817.95
2018-10-03T18:49:14.984Z,101824.67
2018-10-03T18:51:43.306Z,101830.41
2018-10-03T18:54:11.579Z,101830.96
2018-10-03T18:56:40.729Z,101837.55
2018-10-03T18:59:09.243Z,101836.19
2018-10-03T19:01:37.534Z,101842.50
2018-10-03T19:04:07.172Z,101840.34
2018-10-03T19:06:35.579Z,101842.50
2018-10-03T19:09:05.466Z,101847.37
2018-10-03T19:11:34.443Z,101847.11
2018-10-03T19:14:02.828Z,101851.67
2018-10-03T19:16:31.271Z,101849.26
2018-10-03T19:18:59.646Z,101851.99
2018-10-03T19:21:28.060Z,101861.10
2018-10-03T19:23:56.354Z,101858.22
2018-10-03T19:26:24.807Z,101870.71
2018-10-03T19:28:53.159Z,101876.51
2018-10-03T19:31:21.739Z,101873.91
2018-10-03T19:33:50.164Z,101872.52
2018-10-03T19:36:18.826Z,101869.92
2018-10-03T19:38:47.436Z,101882.45
2018-10-03T19:41:16.157Z,101883.56
2018-10-03T19:43:44.729Z,101879.93
2018-10-03T19:46:13.097Z,101889.92
2018-10-03T19:48:41.406Z,101885.39
2018-10-03T19:51:09.831Z,101896.28
2018-10-03T19:53:38.475Z,101889.12
2018-10-03T19:56:06.754Z,101902.94
2018-10-03T19:58:35.018Z,101896.77
2018-10-03T20:01:04.664Z,101897.72
2018-10-03T20:03:33.034Z,101899.77
2018-10-03T20:06:01.305Z,101910.91
2018-10-03T20:08:30.454Z,101910.08
2018-10-03T20:10:58.733Z,101919.49
2018-10-03T20:13:27.107Z,101914.80
2018-10-03T20:15:55.429Z,101919.17
2018-10-03T20:18:23.745Z,101921.03
2018-10-03T20:20:52.375Z,101922.91
2018-10-03T20:23:20.905Z,101921.44
2018-10-03T20:25:49.355Z,101921.27
2018-10-03T20:28:17.720Z,101926.41
2018-10-03T20:30:47.018Z,101923.20
2018-10-03T20:33:15.343Z,101926.62
2018-10-03T20:35:43.641Z,101930.20
2018-10-03T20:38:12.035Z,101937.33
2018-10-03T20:40:40.445Z,101936.54
2018-10-03T20:43:09.028Z,101930.20
2018-10-03T20:45:37.359Z,101934.25
2018-10-03T20:48:05.897Z,101938.44
2018-10-03T20:50:41.211Z,101945.13
2018-10-03T20:53:09.637Z,101943.44
2018-10-03T20:55:37.841Z,101948.33
2018-10-03T20:58:06.110Z,101949.24
2018-10-03T21:00:34.533Z,101953.05
2018-10-03T21:03:03.385Z,101948.01
2018-10-03T21:05:31.655Z,101950.73
2018-10-03T21:08:00.046Z,101947.95
2018-10-03T21:10:28.297Z,101949.78
2018-10-03T21:12:56.720Z,101945.88
2018-10-03T21:15:24.921Z,101948.32
2018-10-03T21:17:53.145Z,101950.16
2018-10-03T21:20:21.312Z,101958.10
2018-10-03T21:22:49.682Z,101962.41
2018-10-03T21:25:17.906Z,101964.28
2018-10-03T21:27:46.031Z,101964.12
2018-10-03T21:30:14.268Z,101970.45
2018-10-03T21:32:42.462Z,101963.86
2018-10-03T21:35:10.627Z,101963.61
2018-10-03T21:37:39.018Z,101957.02
2018-10-03T21:40:07.151Z,101965.94
2018-10-03T21:42:35.969Z,101971.91
2018-10-03T21:45:04.112Z,101966.72
2018-10-03T21:47:32.283Z,101966.72
2018-10-03T21:50:00.463Z,101968.58
2018-10-03T21:52:28.665Z,101971.42
2018-10-03T21:54:56.845Z,101963.13
2018-10-03T21:57:25.043Z,101968.80
2018-10-03T21:59:53.226Z,101970.08
2018-10-03T22:02:21.380Z,101977.04
2018-10-03T22:04:49.765Z,101973.30
2018-10-03T22:07:17.905Z,101966.52
2018-10-03T22:09:46.083Z,101960.80
2018-10-03T22:12:14.224Z,101962.60
2018-10-03T22:14:42.345Z,101966.86
2018-10-03T22:17:15.941Z,101965.09
2018-10-03T22:19:44.075Z,101964.20
2018-10-03T22:22:12.233Z,101963.98
2018-10-03T22:24:40.431Z,101958.46
2018-10-03T22:27:08.617Z,101958.34
2018-10-03T22:29:36.826Z,101959.53
2018-10-03T22:32:05.019Z,101965.48
2018-10-03T22:34:33.273Z,101961.01
2018-10-03T22:37:01.462Z,101959.64
2018-10-03T22:39:29.675Z,101961.47
2018-10-03T22:41:57.926Z,101965.20
2018-10-03T22:44:26.119Z,101965.20
2018-10-03T22:46:54.305Z,101967.27
2018-10-03T22:49:22.485Z,101969.71
2018-10-03T22:51:50.765Z,101971.78
2018-10-03T22:54:19.002Z,101980.98
2018-10-03T22:56:47.277Z,101981.22
2018-10-03T22:59:15.379Z,101982.66
2018-10-03T23:01:44.168Z,101986.10
2018-10-03T23:04:12.254Z,101982.50
2018-10-03T23:06:40.435Z,101988.92
2018-10-03T23:09:08.619Z,101981.95
2018-10-03T23:11:37.001Z,101987.14
2018-10-03T23:14:05.265Z,101982.50
2018-10-03T23:16:33.385Z,101985.09
2018-10-03T23:19:01.832Z,101982.77
2018-10-03T23:21:30.038Z,101977.38
2018-10-03T23:23:58.160Z,101976.02
2018-10-03T23:26:26.342Z,101976.53
2018-10-03T23:28:54.551Z,101981.75
2018-10-03T23:31:22.687Z,101978.41
2018-10-03T23:33:50.847Z,101980.73
2018-10-03T23:36:19.740Z,101982.37
2018-10-03T23:38:47.913Z,101994.86
2018-10-03T23:41:16.076Z,101997.28
2018-10-03T23:43:44.331Z,102000.45
2018-10-03T23:46:12.502Z,102002.20
2018-10-03T23:48:40.659Z,102001.52
2018-10-03T23:51:08.978Z,102002.98
2018-10-03T23:53:37.213Z,102000.83
2018-10-03T23:56:05.348Z,102004.45
2018-10-03T23:58:33.508Z,102001.38
